John C. Munro Hamilton International Airport
CYHM : now visible

Airfield :











YOU CAN JOIN US ON...

 
LOGIN :

Register | Disclaimer

   EN    FR    IT 

 









Legend :    VFR   Marginal VFR   IFR   Intensive IFR   Very Intensive IFR
Visi :
Ceiling :
>= 8 km
>= 3000ft
5 to 8 km
1000 to 3000 ft
1500m to 5 km
500 to 1000 ft
800 to 1500m
200 to 500 ft
< 800m
< 200 ft
Symbols :   Thunderstorms  Fog  Heavy snow  Heavy precipitations  Wind > 20 kt






- Airport Elevation : 780 ft
- IATA code : YHM


CYHM - John C. Munro Hamilton International

CURRENT METAR :
  • 300300Z 28008KT 15SM SKC 13/11 A2993 RMK SLP138 DENSITY ALT 800FT

EXPIRED METARs :
  • 300200Z 28007KT 15SM FEW025 14/12 A2992 RMK SC1 SLP134 DENSITY ALT 900FT
  • 300100Z 27006KT 15SM BKN021 BKN059 15/13 A2990 RMK SC5SC2 SLP124 DENSITY ALT 1000FT
  • 300022Z 30007KT 12SM -SHRA BKN023 16/13 A2987 RMK SC7 CVCTV CLD EMBD SLP117 DENSITY ALT 1200FT

TAF TAF CYHM
Valid from the 30 at 00:00 until the 31 at 00:00 UTC


292354Z 3000/3024 29012KT P6SM FEW015 BKN050
TEMPO 3000/3003 BKN015
FM300300 29012KT P6SM FEW050
BECMG 3004/3006 29008KT
FM300600 25005KT P6SM SKC
FM300900 25006KT P6SM FEW010 SCT020
TEMPO 3009/3012 BKN010
FM301500 29015KT P6SM BKN020
BECMG 3015/3017 BKN030
FM301700 30018KT P6SM BKN040
FM302000 31020KT P6SM SCT050
TEMPO 3021/3024 BKN050 RMK NXT FCST BY 300600Z
CZYZ FIR / North America



MET'MAP, your aeronautical weather chart ! - Copyright ORBIFLY December 2007 - Disclaimer

ORBIFLY MET'MAP TEAM :

Programming & Development : Alexandra Zaïnal
Concept & original design : Baudouin d'Aumeries
Assistance for programming : Marc-Olivier Méhu
Technical & hardware support : Manuel Goepfert

Contact : metmap@orbifly.com




SOURCES & CREDITS :

   NOAA       Earth
Advisory